Terminal Aerodrome Forecast
Issued by NWS Rapid City, SD

Home | Current Version | Previous Version | Graphics & Text | Print | Product List | Glossary On
Versions: 1 2 3 4 5 6 7 8 9 10 11 12 13 14 15 16 17 18 19
000
FTUS43 KUNR 191200 AAA
TAFRAP
TAF AMD
KRAP 191235Z 1913/2012 15015KT P6SM SCT080 BKN150
      TEMPO 1913/1914 5SM -TSRA BKN080CB
     FM191500 15008KT P6SM FEW150
     FM200000 35009KT P6SM SKC=

USA.gov is the U.S. government's official web portal to all federal, state and local government web resources and services.